sensor_id;sensor_type;location;lat;lon;timestamp;P1;durP1;ratioP1;P2;durP2;ratioP2
351;SDS011;164;50.784;6.496;2023-11-22T00:00:07;6.85;;;5.85;;
351;SDS011;164;50.784;6.496;2023-11-22T00:02:34;7.38;;;6.68;;
351;SDS011;164;50.784;6.496;2023-11-22T00:05:03;6.78;;;6.38;;
351;SDS011;164;50.784;6.496;2023-11-22T00:07:30;7.07;;;6.50;;
351;SDS011;164;50.784;6.496;2023-11-22T00:09:57;9.75;;;8.45;;
351;SDS011;164;50.784;6.496;2023-11-22T00:12:26;7.97;;;7.22;;
351;SDS011;164;50.784;6.496;2023-11-22T00:15:03;10.45;;;7.50;;
351;SDS011;164;50.784;6.496;2023-11-22T00:17:31;9.57;;;7.50;;
351;SDS011;164;50.784;6.496;2023-11-22T00:19:58;9.38;;;7.32;;
351;SDS011;164;50.784;6.496;2023-11-22T00:22:30;9.30;;;7.25;;
351;SDS011;164;50.784;6.496;2023-11-22T00:24:58;9.07;;;6.63;;
351;SDS011;164;50.784;6.496;2023-11-22T00:27:28;7.90;;;6.93;;
351;SDS011;164;50.784;6.496;2023-11-22T00:29:56;9.63;;;7.97;;
351;SDS011;164;50.784;6.496;2023-11-22T00:32:24;7.90;;;6.90;;
351;SDS011;164;50.784;6.496;2023-11-22T00:34:52;8.48;;;6.20;;
351;SDS011;164;50.784;6.496;2023-11-22T00:37:19;8.57;;;6.30;;
351;SDS011;164;50.784;6.496;2023-11-22T00:39:46;7.70;;;6.57;;
351;SDS011;164;50.784;6.496;2023-11-22T00:42:13;5.63;;;5.15;;
351;SDS011;164;50.784;6.496;2023-11-22T00:44:41;9.30;;;7.43;;
351;SDS011;164;50.784;6.496;2023-11-22T00:47:09;8.57;;;7.43;;
351;SDS011;164;50.784;6.496;2023-11-22T00:49:37;8.18;;;6.60;;
351;SDS011;164;50.784;6.496;2023-11-22T00:52:05;9.20;;;7.43;;
351;SDS011;164;50.784;6.496;2023-11-22T00:54:33;9.27;;;7.85;;
351;SDS011;164;50.784;6.496;2023-11-22T00:57:01;8.65;;;7.50;;
351;SDS011;164;50.784;6.496;2023-11-22T00:59:28;7.63;;;6.88;;
351;SDS011;164;50.784;6.496;2023-11-22T01:01:55;5.70;;;5.10;;
351;SDS011;164;50.784;6.496;2023-11-22T01:04:22;9.55;;;8.65;;
351;SDS011;164;50.784;6.496;2023-11-22T01:06:51;12.55;;;7.78;;
351;SDS011;164;50.784;6.496;2023-11-22T01:09:18;9.15;;;7.78;;
351;SDS011;164;50.784;6.496;2023-11-22T01:11:46;12.88;;;7.50;;
351;SDS011;164;50.784;6.496;2023-11-22T01:14:13;8.57;;;7.00;;
351;SDS011;164;50.784;6.496;2023-11-22T01:16:40;9.57;;;8.07;;
351;SDS011;164;50.784;6.496;2023-11-22T01:19:08;10.45;;;8.70;;
351;SDS011;164;50.784;6.496;2023-11-22T01:21:36;7.40;;;7.03;;
351;SDS011;164;50.784;6.496;2023-11-22T01:24:05;12.02;;;7.88;;
351;SDS011;164;50.784;6.496;2023-11-22T01:26:32;9.10;;;7.35;;
351;SDS011;164;50.784;6.496;2023-11-22T01:29:00;9.05;;;7.20;;
351;SDS011;164;50.784;6.496;2023-11-22T01:31:28;8.20;;;7.35;;
351;SDS011;164;50.784;6.496;2023-11-22T01:33:55;10.10;;;7.95;;
351;SDS011;164;50.784;6.496;2023-11-22T01:36:23;11.48;;;8.70;;
351;SDS011;164;50.784;6.496;2023-11-22T01:38:52;9.98;;;8.98;;
351;SDS011;164;50.784;6.496;2023-11-22T01:41:23;10.00;;;8.30;;
351;SDS011;164;50.784;6.496;2023-11-22T01:43:50;8.98;;;7.60;;
351;SDS011;164;50.784;6.496;2023-11-22T01:46:21;10.90;;;9.65;;
351;SDS011;164;50.784;6.496;2023-11-22T01:48:49;14.43;;;9.52;;
351;SDS011;164;50.784;6.496;2023-11-22T01:51:18;10.65;;;8.75;;
351;SDS011;164;50.784;6.496;2023-11-22T01:53:45;11.18;;;8.98;;
351;SDS011;164;50.784;6.496;2023-11-22T01:56:13;10.90;;;8.38;;
351;SDS011;164;50.784;6.496;2023-11-22T01:58:43;12.00;;;9.23;;
351;SDS011;164;50.784;6.496;2023-11-22T02:01:10;11.65;;;9.20;;
351;SDS011;164;50.784;6.496;2023-11-22T02:03:38;16.20;;;9.32;;
351;SDS011;164;50.784;6.496;2023-11-22T02:06:05;11.27;;;8.55;;
351;SDS011;164;50.784;6.496;2023-11-22T02:08:34;11.93;;;8.98;;
351;SDS011;164;50.784;6.496;2023-11-22T02:11:01;11.68;;;9.25;;
351;SDS011;164;50.784;6.496;2023-11-22T02:13:29;11.50;;;8.00;;
351;SDS011;164;50.784;6.496;2023-11-22T02:15:58;10.82;;;8.13;;
351;SDS011;164;50.784;6.496;2023-11-22T02:18:26;9.35;;;8.15;;
351;SDS011;164;50.784;6.496;2023-11-22T02:20:54;9.52;;;8.00;;
351;SDS011;164;50.784;6.496;2023-11-22T02:23:22;11.65;;;8.30;;
351;SDS011;164;50.784;6.496;2023-11-22T02:25:50;11.23;;;8.45;;
351;SDS011;164;50.784;6.496;2023-11-22T02:28:17;10.82;;;8.38;;
351;SDS011;164;50.784;6.496;2023-11-22T02:30:44;9.88;;;8.38;;
351;SDS011;164;50.784;6.496;2023-11-22T02:33:12;10.70;;;9.13;;
351;SDS011;164;50.784;6.496;2023-11-22T02:35:39;11.32;;;7.45;;
351;SDS011;164;50.784;6.496;2023-11-22T02:38:07;8.93;;;8.13;;
351;SDS011;164;50.784;6.496;2023-11-22T02:40:35;9.93;;;7.97;;
351;SDS011;164;50.784;6.496;2023-11-22T02:43:03;11.70;;;8.15;;
351;SDS011;164;50.784;6.496;2023-11-22T02:45:34;10.98;;;8.77;;
351;SDS011;164;50.784;6.496;2023-11-22T02:48:01;11.20;;;8.70;;
351;SDS011;164;50.784;6.496;2023-11-22T02:50:29;9.63;;;8.88;;
351;SDS011;164;50.784;6.496;2023-11-22T02:52:57;11.95;;;8.88;;
351;SDS011;164;50.784;6.496;2023-11-22T02:55:24;9.57;;;7.75;;
351;SDS011;164;50.784;6.496;2023-11-22T02:57:53;10.05;;;8.18;;
351;SDS011;164;50.784;6.496;2023-11-22T03:00:20;8.85;;;7.97;;
351;SDS011;164;50.784;6.496;2023-11-22T03:02:49;7.95;;;6.88;;
351;SDS011;164;50.784;6.496;2023-11-22T03:05:19;10.50;;;7.82;;
351;SDS011;164;50.784;6.496;2023-11-22T03:07:46;9.18;;;7.05;;
351;SDS011;164;50.784;6.496;2023-11-22T03:10:16;9.65;;;8.00;;
351;SDS011;164;50.784;6.496;2023-11-22T03:12:44;7.65;;;6.57;;
351;SDS011;164;50.784;6.496;2023-11-22T03:15:12;9.13;;;8.00;;
351;SDS011;164;50.784;6.496;2023-11-22T03:17:39;10.02;;;6.95;;
351;SDS011;164;50.784;6.496;2023-11-22T03:20:09;9.18;;;7.75;;
351;SDS011;164;50.784;6.496;2023-11-22T03:22:37;9.75;;;7.63;;
351;SDS011;164;50.784;6.496;2023-11-22T03:25:04;9.93;;;7.38;;
351;SDS011;164;50.784;6.496;2023-11-22T03:27:32;8.82;;;7.95;;
351;SDS011;164;50.784;6.496;2023-11-22T03:29:59;9.88;;;7.82;;
351;SDS011;164;50.784;6.496;2023-11-22T03:32:28;10.68;;;8.57;;
351;SDS011;164;50.784;6.496;2023-11-22T03:34:55;7.22;;;5.72;;
351;SDS011;164;50.784;6.496;2023-11-22T03:37:22;9.40;;;7.65;;
351;SDS011;164;50.784;6.496;2023-11-22T03:39:49;10.90;;;8.38;;
351;SDS011;164;50.784;6.496;2023-11-22T03:42:16;9.80;;;8.30;;
351;SDS011;164;50.784;6.496;2023-11-22T03:44:43;7.97;;;7.10;;
351;SDS011;164;50.784;6.496;2023-11-22T03:47:10;8.68;;;7.22;;
351;SDS011;164;50.784;6.496;2023-11-22T03:49:39;7.97;;;7.57;;
351;SDS011;164;50.784;6.496;2023-11-22T03:52:08;7.80;;;7.22;;
351;SDS011;164;50.784;6.496;2023-11-22T03:54:36;9.65;;;7.60;;
351;SDS011;164;50.784;6.496;2023-11-22T03:57:04;10.45;;;8.00;;
351;SDS011;164;50.784;6.496;2023-11-22T03:59:34;8.02;;;7.18;;
351;SDS011;164;50.784;6.496;2023-11-22T04:02:01;8.10;;;7.75;;
351;SDS011;164;50.784;6.496;2023-11-22T04:04:29;9.73;;;7.50;;
351;SDS011;164;50.784;6.496;2023-11-22T04:06:57;8.00;;;7.28;;
351;SDS011;164;50.784;6.496;2023-11-22T04:09:25;8.45;;;7.35;;
351;SDS011;164;50.784;6.496;2023-11-22T04:11:52;11.82;;;8.43;;
351;SDS011;164;50.784;6.496;2023-11-22T04:14:19;8.10;;;7.50;;
351;SDS011;164;50.784;6.496;2023-11-22T04:16:46;10.15;;;8.20;;
351;SDS011;164;50.784;6.496;2023-11-22T04:19:14;10.40;;;8.38;;
351;SDS011;164;50.784;6.496;2023-11-22T04:21:41;11.13;;;10.20;;
351;SDS011;164;50.784;6.496;2023-11-22T04:24:10;10.07;;;8.43;;
351;SDS011;164;50.784;6.496;2023-11-22T04:26:37;10.00;;;8.65;;
351;SDS011;164;50.784;6.496;2023-11-22T04:29:04;14.52;;;10.88;;
351;SDS011;164;50.784;6.496;2023-11-22T04:31:32;10.02;;;8.23;;
351;SDS011;164;50.784;6.496;2023-11-22T04:33:59;9.15;;;8.10;;
351;SDS011;164;50.784;6.496;2023-11-22T04:36:26;10.73;;;8.05;;
351;SDS011;164;50.784;6.496;2023-11-22T04:38:54;10.27;;;7.68;;
351;SDS011;164;50.784;6.496;2023-11-22T04:41:23;10.87;;;8.73;;
351;SDS011;164;50.784;6.496;2023-11-22T04:43:51;12.68;;;9.77;;
351;SDS011;164;50.784;6.496;2023-11-22T04:46:18;10.77;;;8.10;;
351;SDS011;164;50.784;6.496;2023-11-22T04:48:45;10.52;;;8.07;;
351;SDS011;164;50.784;6.496;2023-11-22T04:51:16;12.00;;;9.40;;
351;SDS011;164;50.784;6.496;2023-11-22T04:53:44;10.75;;;8.50;;
351;SDS011;164;50.784;6.496;2023-11-22T04:56:11;11.32;;;7.97;;
351;SDS011;164;50.784;6.496;2023-11-22T04:58:39;14.23;;;8.52;;
351;SDS011;164;50.784;6.496;2023-11-22T05:01:07;9.35;;;7.28;;
351;SDS011;164;50.784;6.496;2023-11-22T05:03:35;15.02;;;8.32;;
351;SDS011;164;50.784;6.496;2023-11-22T05:06:03;10.55;;;8.55;;
351;SDS011;164;50.784;6.496;2023-11-22T05:08:31;9.82;;;8.68;;
351;SDS011;164;50.784;6.496;2023-11-22T05:10:59;11.68;;;8.80;;
351;SDS011;164;50.784;6.496;2023-11-22T05:13:27;11.55;;;9.30;;
351;SDS011;164;50.784;6.496;2023-11-22T05:15:57;9.57;;;7.70;;
351;SDS011;164;50.784;6.496;2023-11-22T05:18:25;13.57;;;8.73;;
351;SDS011;164;50.784;6.496;2023-11-22T05:20:53;11.50;;;8.18;;
351;SDS011;164;50.784;6.496;2023-11-22T05:23:20;11.15;;;8.80;;
351;SDS011;164;50.784;6.496;2023-11-22T05:25:48;10.43;;;8.90;;
351;SDS011;164;50.784;6.496;2023-11-22T05:28:15;12.57;;;10.13;;
351;SDS011;164;50.784;6.496;2023-11-22T05:30:42;11.23;;;8.90;;
351;SDS011;164;50.784;6.496;2023-11-22T05:33:11;11.30;;;9.70;;
351;SDS011;164;50.784;6.496;2023-11-22T05:35:38;12.60;;;7.82;;
351;SDS011;164;50.784;6.496;2023-11-22T05:38:06;14.48;;;9.68;;
351;SDS011;164;50.784;6.496;2023-11-22T05:40:33;11.68;;;9.43;;
351;SDS011;164;50.784;6.496;2023-11-22T05:43:00;8.98;;;7.38;;
351;SDS011;164;50.784;6.496;2023-11-22T05:45:27;11.80;;;9.25;;
351;SDS011;164;50.784;6.496;2023-11-22T05:47:55;12.27;;;8.80;;
351;SDS011;164;50.784;6.496;2023-11-22T05:50:23;11.15;;;9.25;;
351;SDS011;164;50.784;6.496;2023-11-22T05:52:51;11.88;;;8.18;;
351;SDS011;164;50.784;6.496;2023-11-22T05:55:18;9.90;;;7.68;;
351;SDS011;164;50.784;6.496;2023-11-22T05:57:46;12.73;;;9.00;;
351;SDS011;164;50.784;6.496;2023-11-22T06:00:13;10.05;;;7.45;;
351;SDS011;164;50.784;6.496;2023-11-22T06:02:41;12.25;;;9.10;;
351;SDS011;164;50.784;6.496;2023-11-22T06:05:08;10.73;;;7.35;;
351;SDS011;164;50.784;6.496;2023-11-22T06:07:37;11.80;;;9.30;;
351;SDS011;164;50.784;6.496;2023-11-22T06:10:05;11.50;;;7.65;;
351;SDS011;164;50.784;6.496;2023-11-22T06:12:32;13.18;;;8.80;;
351;SDS011;164;50.784;6.496;2023-11-22T06:14:59;10.38;;;7.40;;
351;SDS011;164;50.784;6.496;2023-11-22T06:17:28;11.35;;;8.02;;
351;SDS011;164;50.784;6.496;2023-11-22T06:19:56;10.90;;;8.18;;
351;SDS011;164;50.784;6.496;2023-11-22T06:22:23;11.55;;;7.65;;
351;SDS011;164;50.784;6.496;2023-11-22T06:24:52;11.32;;;7.15;;
351;SDS011;164;50.784;6.496;2023-11-22T06:27:19;8.52;;;6.60;;
351;SDS011;164;50.784;6.496;2023-11-22T06:29:46;10.52;;;8.23;;
351;SDS011;164;50.784;6.496;2023-11-22T06:32:13;10.35;;;7.90;;
351;SDS011;164;50.784;6.496;2023-11-22T06:34:40;11.43;;;7.68;;
351;SDS011;164;50.784;6.496;2023-11-22T06:37:08;11.15;;;8.63;;
351;SDS011;164;50.784;6.496;2023-11-22T06:39:35;11.00;;;8.02;;
351;SDS011;164;50.784;6.496;2023-11-22T06:42:04;9.80;;;7.82;;
351;SDS011;164;50.784;6.496;2023-11-22T06:44:32;15.45;;;8.13;;
351;SDS011;164;50.784;6.496;2023-11-22T06:47:00;12.18;;;8.95;;
351;SDS011;164;50.784;6.496;2023-11-22T06:49:28;10.35;;;6.50;;
351;SDS011;164;50.784;6.496;2023-11-22T06:51:55;11.10;;;7.93;;
351;SDS011;164;50.784;6.496;2023-11-22T06:54:24;11.20;;;7.53;;
351;SDS011;164;50.784;6.496;2023-11-22T06:56:52;13.93;;;7.43;;
351;SDS011;164;50.784;6.496;2023-11-22T06:59:20;12.85;;;9.80;;
351;SDS011;164;50.784;6.496;2023-11-22T07:01:48;13.10;;;9.70;;
351;SDS011;164;50.784;6.496;2023-11-22T07:04:15;12.75;;;10.45;;
351;SDS011;164;50.784;6.496;2023-11-22T07:06:42;14.07;;;8.85;;
351;SDS011;164;50.784;6.496;2023-11-22T07:09:10;11.27;;;8.90;;
351;SDS011;164;50.784;6.496;2023-11-22T07:11:39;13.15;;;8.95;;
351;SDS011;164;50.784;6.496;2023-11-22T07:14:06;13.43;;;9.00;;
351;SDS011;164;50.784;6.496;2023-11-22T07:16:35;12.75;;;8.80;;
351;SDS011;164;50.784;6.496;2023-11-22T07:19:02;10.07;;;7.43;;
351;SDS011;164;50.784;6.496;2023-11-22T07:21:32;12.23;;;9.25;;
351;SDS011;164;50.784;6.496;2023-11-22T07:24:03;14.00;;;9.68;;
351;SDS011;164;50.784;6.496;2023-11-22T07:26:31;9.38;;;7.05;;
351;SDS011;164;50.784;6.496;2023-11-22T07:28:59;11.35;;;8.07;;
351;SDS011;164;50.784;6.496;2023-11-22T07:31:26;10.60;;;8.00;;
351;SDS011;164;50.784;6.496;2023-11-22T07:33:55;11.45;;;7.95;;
351;SDS011;164;50.784;6.496;2023-11-22T07:36:23;12.05;;;9.02;;
351;SDS011;164;50.784;6.496;2023-11-22T07:38:51;11.70;;;8.55;;
351;SDS011;164;50.784;6.496;2023-11-22T07:41:18;17.90;;;10.20;;
351;SDS011;164;50.784;6.496;2023-11-22T07:43:46;17.63;;;10.93;;
351;SDS011;164;50.784;6.496;2023-11-22T07:46:14;16.00;;;9.60;;
351;SDS011;164;50.784;6.496;2023-11-22T07:48:42;18.05;;;11.32;;
351;SDS011;164;50.784;6.496;2023-11-22T07:51:14;15.43;;;11.68;;
351;SDS011;164;50.784;6.496;2023-11-22T07:53:42;13.68;;;9.85;;
351;SDS011;164;50.784;6.496;2023-11-22T07:56:09;18.67;;;12.65;;
351;SDS011;164;50.784;6.496;2023-11-22T07:58:37;19.85;;;11.25;;
351;SDS011;164;50.784;6.496;2023-11-22T08:01:04;15.30;;;11.75;;
351;SDS011;164;50.784;6.496;2023-11-22T08:03:38;16.40;;;12.57;;
351;SDS011;164;50.784;6.496;2023-11-22T08:06:10;19.42;;;11.95;;
351;SDS011;164;50.784;6.496;2023-11-22T08:08:39;15.82;;;11.30;;
351;SDS011;164;50.784;6.496;2023-11-22T08:11:07;15.98;;;10.50;;
351;SDS011;164;50.784;6.496;2023-11-22T08:13:39;18.38;;;11.43;;
351;SDS011;164;50.784;6.496;2023-11-22T08:16:08;19.40;;;12.70;;
351;SDS011;164;50.784;6.496;2023-11-22T08:18:35;16.95;;;11.35;;
351;SDS011;164;50.784;6.496;2023-11-22T08:21:02;18.63;;;11.40;;
351;SDS011;164;50.784;6.496;2023-11-22T08:23:30;15.38;;;10.63;;
351;SDS011;164;50.784;6.496;2023-11-22T08:25:59;14.75;;;9.50;;
351;SDS011;164;50.784;6.496;2023-11-22T08:28:27;16.50;;;10.63;;
351;SDS011;164;50.784;6.496;2023-11-22T08:30:54;14.85;;;11.65;;
351;SDS011;164;50.784;6.496;2023-11-22T08:33:22;15.75;;;11.52;;
351;SDS011;164;50.784;6.496;2023-11-22T08:35:49;16.20;;;10.18;;
351;SDS011;164;50.784;6.496;2023-11-22T08:38:23;17.20;;;11.18;;
351;SDS011;164;50.784;6.496;2023-11-22T08:40:51;14.68;;;10.45;;
351;SDS011;164;50.784;6.496;2023-11-22T08:43:21;19.23;;;12.60;;
351;SDS011;164;50.784;6.496;2023-11-22T08:45:50;15.80;;;11.25;;
351;SDS011;164;50.784;6.496;2023-11-22T08:48:17;12.48;;;10.13;;
351;SDS011;164;50.784;6.496;2023-11-22T08:50:45;15.27;;;11.00;;
351;SDS011;164;50.784;6.496;2023-11-22T08:53:13;13.75;;;9.98;;
351;SDS011;164;50.784;6.496;2023-11-22T08:55:42;15.45;;;9.38;;
351;SDS011;164;50.784;6.496;2023-11-22T08:58:09;14.32;;;10.75;;
351;SDS011;164;50.784;6.496;2023-11-22T09:00:38;12.52;;;10.20;;
351;SDS011;164;50.784;6.496;2023-11-22T09:03:06;13.88;;;9.43;;
351;SDS011;164;50.784;6.496;2023-11-22T09:05:33;12.50;;;9.45;;
351;SDS011;164;50.784;6.496;2023-11-22T09:08:01;12.98;;;8.90;;
351;SDS011;164;50.784;6.496;2023-11-22T09:10:29;14.75;;;10.10;;
351;SDS011;164;50.784;6.496;2023-11-22T09:12:56;10.45;;;9.20;;
351;SDS011;164;50.784;6.496;2023-11-22T09:15:25;14.80;;;9.93;;
351;SDS011;164;50.784;6.496;2023-11-22T09:17:55;12.20;;;9.68;;
351;SDS011;164;50.784;6.496;2023-11-22T09:20:23;11.25;;;7.72;;
351;SDS011;164;50.784;6.496;2023-11-22T09:22:50;9.23;;;6.47;;
351;SDS011;164;50.784;6.496;2023-11-22T09:25:19;13.00;;;10.35;;
351;SDS011;164;50.784;6.496;2023-11-22T09:27:49;17.58;;;11.00;;
351;SDS011;164;50.784;6.496;2023-11-22T09:30:19;15.15;;;11.60;;
351;SDS011;164;50.784;6.496;2023-11-22T09:33:01;15.00;;;12.85;;
351;SDS011;164;50.784;6.496;2023-11-22T09:35:28;16.65;;;12.35;;
351;SDS011;164;50.784;6.496;2023-11-22T09:37:56;15.80;;;10.68;;
351;SDS011;164;50.784;6.496;2023-11-22T09:40:24;13.80;;;10.48;;
351;SDS011;164;50.784;6.496;2023-11-22T09:42:52;14.30;;;10.80;;
351;SDS011;164;50.784;6.496;2023-11-22T09:45:20;12.52;;;9.10;;
351;SDS011;164;50.784;6.496;2023-11-22T09:47:48;11.38;;;8.27;;
351;SDS011;164;50.784;6.496;2023-11-22T09:50:19;10.43;;;8.68;;
351;SDS011;164;50.784;6.496;2023-11-22T09:52:49;12.73;;;10.43;;
351;SDS011;164;50.784;6.496;2023-11-22T09:55:19;15.65;;;11.10;;
351;SDS011;164;50.784;6.496;2023-11-22T09:57:47;13.23;;;10.60;;
351;SDS011;164;50.784;6.496;2023-11-22T10:00:14;16.08;;;11.15;;
351;SDS011;164;50.784;6.496;2023-11-22T10:02:43;13.95;;;10.65;;
351;SDS011;164;50.784;6.496;2023-11-22T10:05:11;13.02;;;11.27;;
351;SDS011;164;50.784;6.496;2023-11-22T10:07:41;12.40;;;10.00;;
351;SDS011;164;50.784;6.496;2023-11-22T10:10:08;12.00;;;9.98;;
351;SDS011;164;50.784;6.496;2023-11-22T10:12:36;16.77;;;10.93;;
351;SDS011;164;50.784;6.496;2023-11-22T10:15:16;14.25;;;10.38;;
351;SDS011;164;50.784;6.496;2023-11-22T10:17:49;13.20;;;10.43;;
351;SDS011;164;50.784;6.496;2023-11-22T10:20:22;15.30;;;11.60;;
351;SDS011;164;50.784;6.496;2023-11-22T10:22:52;16.35;;;12.52;;
351;SDS011;164;50.784;6.496;2023-11-22T10:25:20;13.15;;;10.35;;
351;SDS011;164;50.784;6.496;2023-11-22T10:27:48;12.93;;;10.18;;
351;SDS011;164;50.784;6.496;2023-11-22T10:30:17;16.20;;;10.88;;
351;SDS011;164;50.784;6.496;2023-11-22T10:32:44;15.70;;;11.35;;
351;SDS011;164;50.784;6.496;2023-11-22T10:35:11;13.18;;;11.32;;
351;SDS011;164;50.784;6.496;2023-11-22T10:37:41;14.30;;;11.23;;
351;SDS011;164;50.784;6.496;2023-11-22T10:40:12;15.50;;;11.32;;
351;SDS011;164;50.784;6.496;2023-11-22T10:42:41;11.70;;;9.45;;
351;SDS011;164;50.784;6.496;2023-11-22T10:45:09;11.88;;;9.15;;
351;SDS011;164;50.784;6.496;2023-11-22T10:47:37;10.68;;;8.77;;
351;SDS011;164;50.784;6.496;2023-11-22T10:50:09;11.02;;;8.73;;
351;SDS011;164;50.784;6.496;2023-11-22T10:52:37;11.85;;;8.93;;
351;SDS011;164;50.784;6.496;2023-11-22T10:55:07;12.93;;;9.35;;
351;SDS011;164;50.784;6.496;2023-11-22T10:57:44;9.82;;;8.18;;
351;SDS011;164;50.784;6.496;2023-11-22T11:00:13;7.97;;;6.95;;
351;SDS011;164;50.784;6.496;2023-11-22T11:02:44;12.77;;;8.82;;
351;SDS011;164;50.784;6.496;2023-11-22T11:05:14;14.68;;;10.02;;
351;SDS011;164;50.784;6.496;2023-11-22T11:07:48;7.57;;;6.85;;
351;SDS011;164;50.784;6.496;2023-11-22T11:10:18;13.25;;;10.43;;
351;SDS011;164;50.784;6.496;2023-11-22T11:12:47;12.25;;;8.75;;
351;SDS011;164;50.784;6.496;2023-11-22T11:15:15;11.18;;;8.70;;
351;SDS011;164;50.784;6.496;2023-11-22T11:17:43;10.40;;;7.18;;
351;SDS011;164;50.784;6.496;2023-11-22T11:20:15;10.05;;;7.32;;
351;SDS011;164;50.784;6.496;2023-11-22T11:22:43;11.25;;;8.13;;
351;SDS011;164;50.784;6.496;2023-11-22T11:25:13;9.55;;;7.35;;
351;SDS011;164;50.784;6.496;2023-11-22T11:27:43;10.10;;;7.45;;
351;SDS011;164;50.784;6.496;2023-11-22T11:32:58;12.02;;;7.43;;
351;SDS011;164;50.784;6.496;2023-11-22T11:35:37;7.15;;;6.07;;
351;SDS011;164;50.784;6.496;2023-11-22T11:38:04;9.48;;;6.57;;
351;SDS011;164;50.784;6.496;2023-11-22T11:40:34;9.10;;;6.95;;
351;SDS011;164;50.784;6.496;2023-11-22T11:43:01;8.27;;;5.70;;
351;SDS011;164;50.784;6.496;2023-11-22T11:45:28;8.18;;;6.35;;
351;SDS011;164;50.784;6.496;2023-11-22T11:47:59;6.65;;;5.88;;
351;SDS011;164;50.784;6.496;2023-11-22T11:50:26;4.68;;;4.43;;
351;SDS011;164;50.784;6.496;2023-11-22T11:52:54;6.07;;;4.70;;
351;SDS011;164;50.784;6.496;2023-11-22T11:55:22;5.32;;;4.40;;
351;SDS011;164;50.784;6.496;2023-11-22T11:57:49;5.55;;;4.85;;
351;SDS011;164;50.784;6.496;2023-11-22T12:00:17;4.93;;;4.63;;
351;SDS011;164;50.784;6.496;2023-11-22T12:02:44;4.80;;;4.20;;
351;SDS011;164;50.784;6.496;2023-11-22T12:05:13;5.47;;;4.10;;
351;SDS011;164;50.784;6.496;2023-11-22T12:07:40;3.88;;;3.45;;
351;SDS011;164;50.784;6.496;2023-11-22T12:10:08;3.40;;;2.92;;
351;SDS011;164;50.784;6.496;2023-11-22T12:12:36;4.53;;;3.85;;
351;SDS011;164;50.784;6.496;2023-11-22T12:15:05;4.43;;;4.13;;
351;SDS011;164;50.784;6.496;2023-11-22T12:17:32;6.40;;;4.90;;
351;SDS011;164;50.784;6.496;2023-11-22T12:20:14;5.65;;;4.13;;
351;SDS011;164;50.784;6.496;2023-11-22T12:22:42;6.30;;;5.30;;
351;SDS011;164;50.784;6.496;2023-11-22T12:25:10;4.78;;;4.28;;
351;SDS011;164;50.784;6.496;2023-11-22T12:27:39;3.85;;;3.55;;
351;SDS011;164;50.784;6.496;2023-11-22T12:30:07;3.97;;;3.38;;
351;SDS011;164;50.784;6.496;2023-11-22T12:32:37;4.43;;;3.90;;
351;SDS011;164;50.784;6.496;2023-11-22T12:35:05;3.50;;;3.22;;
351;SDS011;164;50.784;6.496;2023-11-22T12:37:34;6.55;;;4.15;;
351;SDS011;164;50.784;6.496;2023-11-22T12:40:12;3.60;;;3.45;;
351;SDS011;164;50.784;6.496;2023-11-22T12:42:46;4.65;;;3.55;;
351;SDS011;164;50.784;6.496;2023-11-22T12:45:17;4.40;;;2.80;;
351;SDS011;164;50.784;6.496;2023-11-22T12:47:45;3.63;;;2.90;;
351;SDS011;164;50.784;6.496;2023-11-22T12:50:28;3.53;;;3.38;;
351;SDS011;164;50.784;6.496;2023-11-22T12:52:57;5.20;;;3.45;;
351;SDS011;164;50.784;6.496;2023-11-22T12:55:25;3.40;;;3.20;;
351;SDS011;164;50.784;6.496;2023-11-22T12:57:56;3.53;;;2.83;;
351;SDS011;164;50.784;6.496;2023-11-22T13:00:24;4.05;;;3.47;;
351;SDS011;164;50.784;6.496;2023-11-22T13:02:54;5.78;;;3.90;;
351;SDS011;164;50.784;6.496;2023-11-22T13:05:22;4.75;;;3.80;;
351;SDS011;164;50.784;6.496;2023-11-22T13:07:49;3.75;;;3.20;;
351;SDS011;164;50.784;6.496;2023-11-22T13:10:18;7.25;;;3.50;;
351;SDS011;164;50.784;6.496;2023-11-22T13:12:51;3.80;;;3.33;;
351;SDS011;164;50.784;6.496;2023-11-22T13:15:18;3.95;;;3.53;;
351;SDS011;164;50.784;6.496;2023-11-22T13:17:46;3.28;;;2.40;;
351;SDS011;164;50.784;6.496;2023-11-22T13:20:13;3.75;;;2.67;;
351;SDS011;164;50.784;6.496;2023-11-22T13:22:40;3.13;;;2.92;;
351;SDS011;164;50.784;6.496;2023-11-22T13:25:08;2.63;;;2.45;;
351;SDS011;164;50.784;6.496;2023-11-22T13:27:38;2.42;;;2.15;;
351;SDS011;164;50.784;6.496;2023-11-22T13:30:06;4.65;;;3.00;;
351;SDS011;164;50.784;6.496;2023-11-22T13:32:33;3.13;;;2.63;;
351;SDS011;164;50.784;6.496;2023-11-22T13:35:01;2.65;;;2.40;;
351;SDS011;164;50.784;6.496;2023-11-22T13:37:35;2.38;;;2.17;;
351;SDS011;164;50.784;6.496;2023-11-22T13:40:07;1.65;;;1.55;;
351;SDS011;164;50.784;6.496;2023-11-22T13:42:38;2.05;;;1.73;;
351;SDS011;164;50.784;6.496;2023-11-22T13:45:06;1.40;;;1.08;;
351;SDS011;164;50.784;6.496;2023-11-22T13:47:33;2.00;;;1.10;;
351;SDS011;164;50.784;6.496;2023-11-22T13:50:00;1.90;;;1.40;;
351;SDS011;164;50.784;6.496;2023-11-22T13:52:28;1.33;;;1.05;;
351;SDS011;164;50.784;6.496;2023-11-22T13:54:58;1.25;;;1.05;;
351;SDS011;164;50.784;6.496;2023-11-22T13:57:26;2.60;;;1.65;;
351;SDS011;164;50.784;6.496;2023-11-22T13:59:54;1.17;;;1.08;;
351;SDS011;164;50.784;6.496;2023-11-22T14:02:21;0.98;;;0.85;;
351;SDS011;164;50.784;6.496;2023-11-22T14:04:49;1.30;;;1.20;;
351;SDS011;164;50.784;6.496;2023-11-22T14:07:17;1.42;;;1.00;;
351;SDS011;164;50.784;6.496;2023-11-22T14:09:44;1.42;;;1.33;;
351;SDS011;164;50.784;6.496;2023-11-22T14:12:12;1.80;;;1.20;;
351;SDS011;164;50.784;6.496;2023-11-22T14:14:39;1.00;;;0.85;;
351;SDS011;164;50.784;6.496;2023-11-22T14:17:08;2.25;;;1.30;;
351;SDS011;164;50.784;6.496;2023-11-22T14:19:35;1.40;;;1.13;;
351;SDS011;164;50.784;6.496;2023-11-22T14:22:02;1.52;;;1.27;;
351;SDS011;164;50.784;6.496;2023-11-22T14:24:30;2.38;;;1.48;;
351;SDS011;164;50.784;6.496;2023-11-22T14:27:02;1.73;;;1.63;;
351;SDS011;164;50.784;6.496;2023-11-22T14:29:29;1.15;;;1.10;;
351;SDS011;164;50.784;6.496;2023-11-22T14:31:56;3.20;;;2.08;;
351;SDS011;164;50.784;6.496;2023-11-22T14:34:25;2.25;;;2.00;;
351;SDS011;164;50.784;6.496;2023-11-22T14:36:52;3.08;;;2.47;;
351;SDS011;164;50.784;6.496;2023-11-22T14:39:19;2.25;;;2.10;;
351;SDS011;164;50.784;6.496;2023-11-22T14:41:47;2.20;;;2.00;;
351;SDS011;164;50.784;6.496;2023-11-22T14:44:16;3.05;;;2.38;;
351;SDS011;164;50.784;6.496;2023-11-22T14:46:44;2.75;;;2.33;;
351;SDS011;164;50.784;6.496;2023-11-22T14:49:11;3.85;;;2.45;;
351;SDS011;164;50.784;6.496;2023-11-22T14:51:41;3.22;;;3.00;;
351;SDS011;164;50.784;6.496;2023-11-22T14:54:09;4.70;;;3.20;;
351;SDS011;164;50.784;6.496;2023-11-22T14:56:36;3.20;;;3.00;;
351;SDS011;164;50.784;6.496;2023-11-22T14:59:04;3.97;;;3.13;;
351;SDS011;164;50.784;6.496;2023-11-22T15:01:32;3.38;;;3.00;;
351;SDS011;164;50.784;6.496;2023-11-22T15:03:59;4.07;;;2.95;;
351;SDS011;164;50.784;6.496;2023-11-22T15:06:26;4.05;;;3.85;;
351;SDS011;164;50.784;6.496;2023-11-22T15:08:55;3.53;;;3.40;;
351;SDS011;164;50.784;6.496;2023-11-22T15:11:24;3.63;;;3.42;;
351;SDS011;164;50.784;6.496;2023-11-22T15:13:51;3.50;;;3.08;;
351;SDS011;164;50.784;6.496;2023-11-22T15:16:18;3.63;;;3.35;;
351;SDS011;164;50.784;6.496;2023-11-22T15:18:45;3.75;;;3.58;;
351;SDS011;164;50.784;6.496;2023-11-22T15:21:13;3.30;;;3.13;;
351;SDS011;164;50.784;6.496;2023-11-22T15:23:40;3.97;;;3.42;;
351;SDS011;164;50.784;6.496;2023-11-22T15:26:09;3.42;;;3.22;;
351;SDS011;164;50.784;6.496;2023-11-22T15:28:36;4.18;;;3.60;;
351;SDS011;164;50.784;6.496;2023-11-22T15:31:03;4.93;;;4.63;;
351;SDS011;164;50.784;6.496;2023-11-22T15:33:31;4.30;;;4.00;;
351;SDS011;164;50.784;6.496;2023-11-22T15:35:59;3.13;;;2.70;;
351;SDS011;164;50.784;6.496;2023-11-22T15:41:02;4.82;;;3.40;;
351;SDS011;164;50.784;6.496;2023-11-22T15:43:31;3.10;;;2.90;;
351;SDS011;164;50.784;6.496;2023-11-22T15:45:59;2.80;;;2.50;;